Time;durP1;ratioP1;P1;durP2;ratioP2;P2;SDS_P1;SDS_P2;PMS_P1;PMS_P2;Temp;Humidity;BMP_temperature;BMP_pressure;BME280_temperature;BME280_humidity;BME280_pressure;Samples;Min_cycle;Max_cycle;Signal;HPM_P1;HPM_P2
2021/01/07 00:00:30;;;;;;;15.38;6.50;;;7.10;99.90;;;;;;4993753;28;20221;-84
2021/01/07 00:02:57;;;;;;;7.97;5.10;;;7.20;99.90;;;;;;4993680;28;20193;-84
2021/01/07 00:05:24;;;;;;;6.88;5.75;;;7.20;99.90;;;;;;4993723;28;20201;-84
2021/01/07 00:07:50;;;;;;;8.18;5.30;;;7.20;99.90;;;;;;4993901;28;20197;-84
2021/01/07 00:10:16;;;;;;;7.97;6.50;;;7.10;99.90;;;;;;4993788;28;20197;-83
2021/01/07 00:12:43;;;;;;;7.40;5.97;;;7.10;99.90;;;;;;4994038;28;20288;-84
2021/01/07 00:15:09;;;;;;;8.43;5.75;;;7.10;99.90;;;;;;4993790;28;20207;-84
2021/01/07 00:17:36;;;;;;;7.60;5.30;;;7.00;99.90;;;;;;4995403;28;20227;-84
2021/01/07 00:20:07;;;;;;;7.60;5.63;;;7.10;99.90;;;;;;4997495;28;20283;-84
2021/01/07 00:22:33;;;;;;;7.60;6.07;;;6.90;99.90;;;;;;4997271;28;20204;-84
2021/01/07 00:24:59;;;;;;;10.45;6.93;;;6.90;99.90;;;;;;4997252;28;20228;-84
2021/01/07 00:27:25;;;;;;;7.43;6.53;;;6.70;99.90;;;;;;4997366;28;20192;-84
2021/01/07 00:29:52;;;;;;;10.27;7.75;;;6.80;99.90;;;;;;4997416;28;20200;-84
2021/01/07 00:32:18;;;;;;;10.27;8.25;;;6.80;99.90;;;;;;4997458;28;20197;-84
2021/01/07 00:34:44;;;;;;;9.68;8.13;;;6.90;99.90;;;;;;4997369;28;20204;-84
2021/01/07 00:37:11;;;;;;;9.48;7.30;;;7.00;99.90;;;;;;4997317;28;20193;-84
2021/01/07 00:39:37;;;;;;;10.25;8.20;;;7.10;99.90;;;;;;4997084;28;20200;-84
2021/01/07 00:42:04;;;;;;;12.23;7.07;;;7.00;99.90;;;;;;4997314;28;20565;-84
2021/01/07 00:44:30;;;;;;;9.38;6.70;;;7.10;99.90;;;;;;4997036;28;20284;-84
2021/01/07 00:46:57;;;;;;;9.35;7.18;;;7.20;99.90;;;;;;4996732;28;20287;-84
2021/01/07 00:49:23;;;;;;;8.57;7.28;;;7.20;99.90;;;;;;4997213;28;20201;-84
2021/01/07 00:51:49;;;;;;;13.70;7.25;;;7.10;99.90;;;;;;4997023;28;20201;-84
2021/01/07 00:54:18;;;;;;;8.30;7.05;;;7.10;99.90;;;;;;4997075;28;20223;-84
2021/01/07 00:56:44;;;;;;;9.07;7.25;;;7.10;99.90;;;;;;4996760;28;20220;-84
2021/01/07 00:59:11;;;;;;;10.27;8.10;;;7.10;99.90;;;;;;4996913;28;20201;-84
2021/01/07 01:01:43;;;;;;;8.70;6.75;;;7.20;99.90;;;;;;4996668;28;20224;-84
2021/01/07 01:04:09;;;;;;;10.55;7.35;;;7.20;99.90;;;;;;4996719;28;20291;-83
2021/01/07 01:06:36;;;;;;;7.93;6.80;;;7.20;99.90;;;;;;4996573;28;20197;-84
2021/01/07 01:09:04;;;;;;;8.52;7.40;;;7.30;99.90;;;;;;4996741;28;20193;-84
2021/01/07 01:11:37;;;;;;;9.18;7.68;;;7.30;99.90;;;;;;4996487;28;20236;-84
2021/01/07 01:14:04;;;;;;;10.15;7.50;;;7.20;99.90;;;;;;4996571;28;20207;-84
2021/01/07 01:16:30;;;;;;;10.52;7.80;;;7.20;99.90;;;;;;4996351;28;20203;-84
2021/01/07 01:18:56;;;;;;;14.98;9.23;;;7.20;99.90;;;;;;4996349;28;20197;-84
2021/01/07 01:21:22;;;;;;;10.70;7.70;;;7.20;99.90;;;;;;4996293;28;20275;-84
2021/01/07 01:23:49;;;;;;;13.60;8.00;;;7.30;99.90;;;;;;4996247;28;20197;-84
2021/01/07 01:26:16;;;;;;;11.90;8.98;;;7.30;99.90;;;;;;4996014;28;20228;-84
2021/01/07 01:28:43;;;;;;;11.93;8.93;;;7.30;99.90;;;;;;4995787;28;20204;-84
2021/01/07 01:31:10;;;;;;;10.80;8.43;;;7.30;99.90;;;;;;4996219;28;20193;-84
2021/01/07 01:33:36;;;;;;;12.45;9.18;;;7.40;99.90;;;;;;4996228;28;20204;-85
2021/01/07 01:36:03;;;;;;;17.50;10.98;;;7.30;99.90;;;;;;4996468;28;20193;-84
2021/01/07 01:38:29;;;;;;;14.25;10.10;;;7.20;99.90;;;;;;4996065;28;20262;-84
2021/01/07 01:41:00;;;;;;;11.95;8.77;;;7.20;99.90;;;;;;4995826;28;20221;-84
2021/01/07 01:43:27;;;;;;;12.63;8.57;;;7.30;99.90;;;;;;4996102;28;20545;-84
2021/01/07 01:45:54;;;;;;;14.38;9.52;;;7.20;99.90;;;;;;4995894;28;20225;-84
2021/01/07 01:48:21;;;;;;;17.77;10.07;;;7.30;99.90;;;;;;4996115;28;20193;-84
2021/01/07 01:50:47;;;;;;;16.38;10.77;;;7.20;99.90;;;;;;4995838;28;20672;-84
2021/01/07 01:53:13;;;;;;;11.93;8.95;;;7.20;99.90;;;;;;4995907;28;20193;-84
2021/01/07 01:55:41;;;;;;;15.35;9.95;;;7.30;99.90;;;;;;4995913;28;20213;-84
2021/01/07 01:58:11;;;;;;;11.80;8.68;;;7.40;99.90;;;;;;4995589;28;20208;-84
2021/01/07 02:00:38;;;;;;;11.77;9.43;;;7.40;99.90;;;;;;4995523;28;20291;-84
2021/01/07 02:03:07;;;;;;;15.57;10.48;;;7.40;99.90;;;;;;4995616;28;20201;-84
2021/01/07 02:05:33;;;;;;;11.05;8.65;;;7.40;99.90;;;;;;4995387;28;20200;-84
2021/01/07 02:08:02;;;;;;;13.75;9.38;;;7.30;99.90;;;;;;4995656;28;20653;-84
2021/01/07 02:10:29;;;;;;;15.85;10.48;;;7.40;99.90;;;;;;4995616;28;20197;-84
2021/01/07 02:12:56;;;;;;;13.88;10.63;;;7.30;99.90;;;;;;4995425;28;20209;-84
2021/01/07 02:15:23;;;;;;;18.10;12.18;;;7.30;99.90;;;;;;4995291;28;20201;-84
2021/01/07 02:17:49;;;;;;;14.75;11.07;;;7.30;99.90;;;;;;4995182;28;20567;-85
2021/01/07 02:20:22;;;;;;;15.98;10.95;;;7.40;99.90;;;;;;4995177;28;20221;-85
2021/01/07 02:22:52;;;;;;;15.23;12.02;;;7.40;99.90;;;;;;4995311;28;20280;-84
2021/01/07 02:25:18;;;;;;;16.50;11.88;;;7.40;99.90;;;;;;4995118;28;20220;-84
2021/01/07 02:27:45;;;;;;;18.25;10.85;;;7.30;99.90;;;;;;4995205;28;20224;-84
2021/01/07 02:30:12;;;;;;;17.10;10.18;;;7.40;99.90;;;;;;4995227;28;20201;-84
2021/01/07 02:32:38;;;;;;;18.75;11.30;;;7.40;99.90;;;;;;4995041;28;20197;-84
2021/01/07 02:35:06;;;;;;;18.98;11.40;;;7.40;99.90;;;;;;4995059;28;20268;-84
2021/01/07 02:37:34;;;;;;;15.18;9.55;;;7.40;99.90;;;;;;4995164;28;20193;-85
2021/01/07 02:40:00;;;;;;;14.20;11.10;;;7.50;99.90;;;;;;4994290;28;20223;-85
2021/01/07 02:42:26;;;;;;;15.82;10.48;;;7.40;99.90;;;;;;4995191;28;20556;-85
2021/01/07 02:44:53;;;;;;;14.48;10.32;;;7.40;99.90;;;;;;4994567;28;20201;-84
2021/01/07 02:47:19;;;;;;;16.83;10.50;;;7.10;99.90;;;;;;4994833;28;20197;-84
2021/01/07 02:49:45;;;;;;;16.73;10.50;;;7.10;99.90;;;;;;4994839;28;20197;-84
2021/01/07 02:52:11;;;;;;;17.13;11.25;;;7.10;99.90;;;;;;4994725;28;20211;-84
2021/01/07 02:54:39;;;;;;;19.55;12.00;;;6.90;99.90;;;;;;4994555;28;20231;-84
2021/01/07 02:57:05;;;;;;;22.15;12.45;;;6.80;99.90;;;;;;4994803;28;20532;-85
2021/01/07 02:59:32;;;;;;;17.05;11.65;;;7.00;99.90;;;;;;4994654;28;20549;-85
2021/01/07 03:01:58;;;;;;;27.88;11.75;;;6.90;99.90;;;;;;4994550;28;20231;-84
2021/01/07 03:04:24;;;;;;;18.17;11.20;;;6.80;99.90;;;;;;4994442;28;20197;-84
2021/01/07 03:06:50;;;;;;;19.77;12.23;;;6.70;99.90;;;;;;4994622;28;20197;-84
2021/01/07 03:09:17;;;;;;;21.52;11.30;;;6.70;99.90;;;;;;4994579;28;20208;-84
2021/01/07 03:11:44;;;;;;;21.15;12.07;;;6.70;99.90;;;;;;4994505;28;20200;-84
2021/01/07 03:14:10;;;;;;;21.33;11.60;;;6.80;99.90;;;;;;4994595;28;20560;-84
2021/01/07 03:16:36;;;;;;;18.60;12.13;;;6.90;99.90;;;;;;4994350;28;20200;-84
2021/01/07 03:19:02;;;;;;;21.85;14.30;;;7.00;99.90;;;;;;4994295;28;20197;-84
2021/01/07 03:21:29;;;;;;;18.55;13.25;;;6.90;99.90;;;;;;4993947;28;20232;-84
2021/01/07 03:23:55;;;;;;;23.98;14.00;;;6.80;99.90;;;;;;4994416;28;20562;-84
2021/01/07 03:26:21;;;;;;;22.35;14.57;;;7.00;99.90;;;;;;4993979;28;20687;-84
2021/01/07 03:28:48;;;;;;;26.13;13.60;;;7.10;99.90;;;;;;4994123;28;20196;-84
2021/01/07 03:31:15;;;;;;;20.77;13.10;;;7.10;99.90;;;;;;4994157;28;20644;-84
2021/01/07 03:33:41;;;;;;;18.05;13.05;;;7.20;99.90;;;;;;4993969;28;20197;-84
2021/01/07 03:36:07;;;;;;;19.85;14.13;;;7.20;99.90;;;;;;4994118;28;20201;-84
2021/01/07 03:38:34;;;;;;;23.02;12.88;;;7.30;99.90;;;;;;4994225;28;20196;-84
2021/01/07 03:41:00;;;;;;;24.10;13.38;;;7.30;99.90;;;;;;4993965;28;20279;-85
2021/01/07 03:43:26;;;;;;;22.42;14.48;;;7.10;99.90;;;;;;4994295;28;20196;-84
2021/01/07 03:45:53;;;;;;;19.25;14.23;;;7.10;99.90;;;;;;4993569;28;20239;-84
2021/01/07 03:48:19;;;;;;;17.83;13.45;;;7.20;99.90;;;;;;4994059;28;20192;-84
2021/01/07 03:50:46;;;;;;;16.98;13.13;;;7.20;99.90;;;;;;4993857;28;20197;-84
2021/01/07 03:53:12;;;;;;;20.85;13.70;;;7.20;99.90;;;;;;4997955;28;20196;-84
2021/01/07 03:55:38;;;;;;;22.13;13.57;;;7.30;99.90;;;;;;4997910;28;20217;-84
2021/01/07 03:58:04;;;;;;;24.52;12.93;;;7.30;99.90;;;;;;4997934;28;20602;-84
2021/01/07 04:00:31;;;;;;;20.67;14.30;;;7.30;99.90;;;;;;4997781;28;20231;-84
2021/01/07 04:02:58;;;;;;;23.60;15.75;;;7.30;99.90;;;;;;4997835;28;20193;-84
2021/01/07 04:05:24;;;;;;;28.63;17.15;;;7.20;99.90;;;;;;4998002;28;20594;-84
2021/01/07 04:07:51;;;;;;;23.00;16.20;;;7.00;99.90;;;;;;4997862;28;20199;-84
2021/01/07 04:10:17;;;;;;;28.60;18.10;;;7.10;99.90;;;;;;4997734;28;20197;-84
2021/01/07 04:12:43;;;;;;;30.08;19.33;;;7.20;99.90;;;;;;4997597;28;20239;-84
2021/01/07 04:15:10;;;;;;;29.60;19.23;;;7.30;99.90;;;;;;4997616;28;20197;-84
2021/01/07 04:17:37;;;;;;;28.38;17.45;;;7.10;99.90;;;;;;4997642;28;20204;-84
2021/01/07 04:20:06;;;;;;;27.67;18.98;;;7.10;99.90;;;;;;4997485;28;20220;-84
2021/01/07 04:22:32;;;;;;;36.80;22.40;;;6.80;99.90;;;;;;4997575;28;20201;-84
2021/01/07 04:24:58;;;;;;;31.05;21.02;;;6.90;99.90;;;;;;4997234;28;20704;-84
2021/01/07 04:27:24;;;;;;;35.50;21.30;;;7.00;99.90;;;;;;4997606;28;20559;-84
2021/01/07 04:29:50;;;;;;;42.72;24.05;;;7.00;99.90;;;;;;4997314;28;20606;-84
2021/01/07 04:32:17;;;;;;;36.97;22.40;;;6.90;99.90;;;;;;4997507;28;20193;-84
2021/01/07 04:34:43;;;;;;;32.65;20.23;;;6.90;99.90;;;;;;4997325;28;20193;-84
2021/01/07 04:37:10;;;;;;;33.78;22.63;;;6.90;99.90;;;;;;4997308;28;20197;-84
2021/01/07 04:39:36;;;;;;;29.23;19.40;;;6.70;99.90;;;;;;4997104;28;20193;-84
2021/01/07 04:42:03;;;;;;;30.30;19.85;;;6.80;99.90;;;;;;4997085;28;20235;-84
2021/01/07 04:44:30;;;;;;;27.38;18.45;;;6.90;99.90;;;;;;4997018;28;20205;-84
2021/01/07 04:46:57;;;;;;;35.10;21.52;;;7.00;99.90;;;;;;4996846;28;20237;-84
2021/01/07 04:49:23;;;;;;;27.60;18.58;;;6.90;99.90;;;;;;4997278;28;20563;-84
2021/01/07 04:51:50;;;;;;;27.55;18.10;;;6.80;99.90;;;;;;4997152;28;20193;-84
2021/01/07 04:54:19;;;;;;;30.23;17.92;;;6.80;99.90;;;;;;4996673;28;20197;-84
2021/01/07 04:56:46;;;;;;;28.17;16.90;;;6.90;99.90;;;;;;4996865;28;20291;-84
2021/01/07 04:59:12;;;;;;;24.80;16.27;;;6.60;99.90;;;;;;4996872;28;20197;-84
2021/01/07 05:01:41;;;;;;;26.75;16.60;;;6.70;99.90;;;;;;4996529;28;20236;-84
2021/01/07 05:04:09;;;;;;;22.50;16.02;;;6.70;99.90;;;;;;4996058;28;20200;-84
2021/01/07 05:06:36;;;;;;;29.70;18.52;;;6.70;99.90;;;;;;4996709;28;20200;-83
2021/01/07 05:09:03;;;;;;;21.50;16.58;;;6.90;99.90;;;;;;4996562;28;20197;-84
2021/01/07 05:11:31;;;;;;;21.55;16.55;;;6.80;99.90;;;;;;4996507;28;20236;-84
2021/01/07 05:13:58;;;;;;;24.80;16.70;;;6.80;99.90;;;;;;4996406;28;20656;-84
2021/01/07 05:16:25;;;;;;;23.90;16.55;;;7.00;99.90;;;;;;4996588;28;20203;-84
2021/01/07 05:18:52;;;;;;;28.00;16.80;;;7.00;99.90;;;;;;4996532;28;20200;-84
2021/01/07 05:21:20;;;;;;;24.13;14.95;;;6.90;99.90;;;;;;4996486;28;20225;-84
2021/01/07 05:23:48;;;;;;;27.38;15.88;;;6.70;99.90;;;;;;4996318;28;20201;-85
2021/01/07 05:26:17;;;;;;;21.52;15.40;;;6.90;99.90;;;;;;4996214;28;20217;-84
2021/01/07 05:28:46;;;;;;;20.45;14.50;;;6.90;99.90;;;;;;4996378;28;20220;-84
2021/01/07 05:31:13;;;;;;;22.33;15.82;;;6.90;99.90;;;;;;4996196;28;20201;-84
2021/01/07 05:33:40;;;;;;;17.35;13.02;;;6.80;99.90;;;;;;4996172;28;20201;-84
2021/01/07 05:36:20;;;;;;;17.65;13.55;;;6.90;99.90;;;;;;4996044;28;20559;-84
2021/01/07 05:38:46;;;;;;;18.55;13.30;;;7.00;99.90;;;;;;4996241;28;20197;-84
2021/01/07 05:41:14;;;;;;;17.83;12.23;;;7.00;99.90;;;;;;4995886;28;20291;-84
2021/01/07 05:43:40;;;;;;;22.55;13.18;;;7.10;99.90;;;;;;4995963;28;20193;-84
2021/01/07 05:46:08;;;;;;;18.95;11.10;;;7.10;99.90;;;;;;4995795;28;20225;-84
2021/01/07 05:48:34;;;;;;;16.65;10.88;;;7.10;99.90;;;;;;4995771;28;20208;-85
2021/01/07 05:51:04;;;;;;;16.83;10.77;;;7.00;99.90;;;;;;4995897;28;20248;-84
2021/01/07 05:53:30;;;;;;;14.63;11.40;;;7.00;99.90;;;;;;4995660;28;20558;-84
2021/01/07 05:55:57;;;;;;;14.70;10.65;;;7.00;99.90;;;;;;4995619;28;20213;-84
2021/01/07 05:58:24;;;;;;;15.65;9.82;;;7.00;99.90;;;;;;4995607;28;20215;-84
2021/01/07 06:00:51;;;;;;;15.07;9.98;;;7.00;99.90;;;;;;4995573;28;20584;-84
2021/01/07 06:03:22;;;;;;;18.17;10.82;;;7.00;99.90;;;;;;4995557;28;20649;-85
2021/01/07 06:05:50;;;;;;;14.88;10.32;;;7.10;99.90;;;;;;4995430;28;20201;-85
2021/01/07 06:08:17;;;;;;;12.05;9.88;;;7.10;99.90;;;;;;4995603;28;20200;-84
2021/01/07 06:10:46;;;;;;;12.80;9.50;;;7.00;99.90;;;;;;4995567;28;20197;-84
2021/01/07 06:13:12;;;;;;;10.52;9.00;;;7.00;99.90;;;;;;4995472;28;20196;-84
2021/01/07 06:15:39;;;;;;;13.10;9.65;;;7.10;99.90;;;;;;4994370;28;20243;-84
2021/01/07 06:18:06;;;;;;;14.98;11.68;;;7.10;99.90;;;;;;4995320;28;20197;-84
2021/01/07 06:20:34;;;;;;;13.77;10.98;;;7.10;99.90;;;;;;4995073;28;20633;-84
2021/01/07 06:23:01;;;;;;;12.18;9.68;;;7.00;99.90;;;;;;4995294;28;20193;-84
2021/01/07 06:25:27;;;;;;;16.42;10.40;;;7.00;99.90;;;;;;4995060;28;20264;-84
2021/01/07 06:27:54;;;;;;;10.40;8.82;;;7.00;99.90;;;;;;4994913;28;20648;-84
2021/01/07 06:30:36;;;;;;;10.48;8.57;;;7.00;99.90;;;;;;4995302;28;20204;-84
2021/01/07 06:33:09;;;;;;;14.07;9.60;;;7.00;99.90;;;;;;4995120;28;20665;-84
2021/01/07 06:35:42;;;;;;;13.23;10.15;;;7.00;99.90;;;;;;4994972;28;20207;-84
2021/01/07 06:38:12;;;;;;;14.13;9.90;;;6.90;99.90;;;;;;4995166;28;20201;-84
2021/01/07 06:40:43;;;;;;;12.52;8.65;;;7.00;99.90;;;;;;4994877;28;20221;-85
2021/01/07 06:43:14;;;;;;;11.13;8.88;;;7.10;99.90;;;;;;4994977;28;20657;-84
2021/01/07 06:45:49;;;;;;;11.13;8.55;;;7.10;99.90;;;;;;4994476;28;20239;-84
2021/01/07 06:48:24;;;;;;;14.63;9.63;;;7.10;99.90;;;;;;4994800;28;20200;-84
2021/01/07 06:50:54;;;;;;;11.00;8.57;;;6.90;99.90;;;;;;4994878;28;20196;-84
2021/01/07 06:53:20;;;;;;;11.50;8.80;;;7.00;99.90;;;;;;4994970;28;20201;-84
2021/01/07 06:56:13;;;;;;;13.55;9.27;;;6.80;99.90;;;;;;4994650;28;20217;-85
2021/01/07 06:58:41;;;;;;;18.20;10.70;;;6.80;99.90;;;;;;4994672;28;20212;-85
2021/01/07 07:01:14;;;;;;;14.07;10.23;;;6.80;99.90;;;;;;4994617;28;20224;-85
2021/01/07 07:03:48;;;;;;;15.10;9.77;;;6.80;99.90;;;;;;4994584;28;20201;-85
2021/01/07 07:06:21;;;;;;;14.70;8.27;;;6.70;99.90;;;;;;4994738;28;20203;-84
2021/01/07 07:08:48;;;;;;;15.25;10.63;;;6.80;99.90;;;;;;4994636;28;20545;-85
2021/01/07 07:11:33;;;;;;;14.50;10.50;;;6.90;99.90;;;;;;4994488;28;20247;-84
2021/01/07 07:14:02;;;;;;;28.42;11.52;;;7.00;99.90;;;;;;4994550;28;20653;-84
2021/01/07 07:16:32;;;;;;;14.95;10.57;;;7.00;99.90;;;;;;4994433;28;20203;-84
2021/01/07 07:18:59;;;;;;;14.38;9.73;;;7.00;99.90;;;;;;4994283;28;20204;-85
2021/01/07 07:21:26;;;;;;;15.52;8.98;;;7.00;99.90;;;;;;4994212;28;20225;-85
2021/01/07 07:23:55;;;;;;;14.45;10.55;;;7.00;99.90;;;;;;4994512;28;20203;-84
2021/01/07 07:26:35;;;;;;;9.80;8.65;;;7.00;99.90;;;;;;4993980;28;20657;-84
2021/01/07 07:29:04;;;;;;;12.18;9.20;;;7.00;99.90;;;;;;4994083;28;20676;-84
2021/01/07 07:31:42;;;;;;;12.02;8.63;;;6.70;99.90;;;;;;4994002;28;20197;-84
2021/01/07 07:34:08;;;;;;;11.07;9.18;;;6.50;99.90;;;;;;4994239;28;20207;-84
2021/01/07 07:36:36;;;;;;;12.75;9.45;;;6.40;99.90;;;;;;4994152;28;20232;-84
2021/01/07 07:39:05;;;;;;;11.40;7.97;;;6.30;99.90;;;;;;4994317;28;20554;-84
2021/01/07 07:41:39;;;;;;;11.82;8.20;;;6.40;99.90;;;;;;4994114;28;20696;-85
2021/01/07 07:44:05;;;;;;;9.93;8.30;;;6.40;99.90;;;;;;4994049;28;20193;-84
2021/01/07 07:46:31;;;;;;;10.40;7.78;;;6.10;99.90;;;;;;4993810;28;20248;-84
2021/01/07 07:48:59;;;;;;;8.68;6.50;;;6.30;99.90;;;;;;4994236;28;20552;-84
2021/01/07 07:51:26;;;;;;;9.25;7.50;;;6.40;99.90;;;;;;4993947;28;20231;-84
2021/01/07 07:54:03;;;;;;;8.98;6.47;;;6.40;99.90;;;;;;4993829;28;20558;-84
2021/01/07 07:56:30;;;;;;;13.65;7.50;;;6.30;99.90;;;;;;4993626;28;20217;-84
2021/01/07 07:59:00;;;;;;;11.00;6.68;;;6.10;99.90;;;;;;4993640;28;20197;-84
2021/01/07 08:01:38;;;;;;;7.00;6.30;;;6.30;99.90;;;;;;4993460;28;20711;-84
2021/01/07 08:04:08;;;;;;;9.52;7.05;;;6.30;99.90;;;;;;4993565;28;20535;-85
2021/01/07 08:06:36;;;;;;;8.70;6.93;;;6.30;99.90;;;;;;4993603;28;20204;-84
2021/01/07 08:09:05;;;;;;;8.45;6.53;;;6.30;99.90;;;;;;4993547;28;20200;-85
2021/01/07 08:11:33;;;;;;;10.45;6.47;;;6.30;99.90;;;;;;4993531;28;20201;-85
2021/01/07 08:13:59;;;;;;;9.10;6.93;;;6.20;99.90;;;;;;4993545;28;20216;-84
2021/01/07 08:16:26;;;;;;;8.77;6.28;;;6.30;99.90;;;;;;4993516;28;20200;-85
2021/01/07 08:18:52;;;;;;;7.95;6.45;;;6.30;99.90;;;;;;4993517;28;20224;-84
2021/01/07 08:21:18;;;;;;;8.00;5.47;;;6.50;99.90;;;;;;4993225;28;20225;-84
2021/01/07 08:23:45;;;;;;;6.88;5.70;;;6.40;99.90;;;;;;4993472;28;20212;-84
2021/01/07 08:26:27;;;;;;;6.15;4.97;;;6.60;99.90;;;;;;4993227;28;20217;-85
2021/01/07 08:28:54;;;;;;;7.47;5.30;;;6.60;99.90;;;;;;4993440;28;20193;-87
2021/01/07 08:31:24;;;;;;;11.23;7.05;;;6.70;99.90;;;;;;4993795;28;20252;-90
2021/01/07 08:33:52;;;;;;;10.38;8.60;;;6.80;99.90;;;;;;4993702;28;20205;-85
2021/01/07 08:36:20;;;;;;;8.73;5.97;;;6.90;99.90;;;;;;4993389;28;20208;-86
2021/01/07 08:38:49;;;;;;;8.98;6.20;;;6.90;99.90;;;;;;4994977;28;20205;-86
2021/01/07 08:41:18;;;;;;;12.10;6.22;;;7.00;99.90;;;;;;4996956;28;20224;-86
2021/01/07 08:43:46;;;;;;;8.07;6.38;;;7.00;99.90;;;;;;4996815;28;20201;-85
2021/01/07 08:46:14;;;;;;;8.40;5.85;;;6.90;99.90;;;;;;4996542;28;20225;-86
2021/01/07 08:48:41;;;;;;;8.68;6.05;;;6.90;99.90;;;;;;4996673;28;20192;-86
2021/01/07 08:51:20;;;;;;;6.57;5.38;;;7.00;99.90;;;;;;4996697;28;20259;-86
2021/01/07 08:53:48;;;;;;;8.10;6.40;;;6.80;99.90;;;;;;4996723;28;20675;-85
2021/01/07 08:56:29;;;;;;;7.38;5.70;;;6.70;99.90;;;;;;4996511;28;20217;-86
2021/01/07 08:59:25;;;;;;;11.70;7.18;;;6.80;99.90;;;;;;4996698;28;20545;-84
2021/01/07 09:01:53;;;;;;;15.88;9.93;;;6.80;99.90;;;;;;4996644;28;20221;-85
2021/01/07 09:04:24;;;;;;;9.57;7.15;;;6.60;99.90;;;;;;4997032;28;20196;-85
2021/01/07 09:06:55;;;;;;;11.27;8.88;;;6.40;99.90;;;;;;4996815;28;20205;-86
2021/01/07 09:09:21;;;;;;;15.95;9.35;;;6.20;99.90;;;;;;4996763;28;20571;-86
2021/01/07 09:11:48;;;;;;;15.25;9.13;;;6.40;99.90;;;;;;4996601;28;20653;-85
2021/01/07 09:14:14;;;;;;;13.90;10.10;;;6.50;99.90;;;;;;4996858;28;20192;-86
2021/01/07 09:16:56;;;;;;;14.48;8.63;;;6.70;99.90;;;;;;4996151;28;20544;-85
2021/01/07 09:19:22;;;;;;;12.05;8.93;;;6.80;99.90;;;;;;4996290;28;20200;-87
2021/01/07 09:21:59;;;;;;;17.15;11.25;;;6.80;99.90;;;;;;4996472;28;20224;-86
2021/01/07 09:24:30;;;;;;;17.45;11.65;;;6.90;99.90;;;;;;4996458;28;20344;-86
2021/01/07 09:27:05;;;;;;;20.13;13.55;;;6.90;99.90;;;;;;4996386;28;20201;-85
2021/01/07 09:29:32;;;;;;;21.13;13.35;;;6.90;99.90;;;;;;4996472;28;20197;-85
2021/01/07 09:31:58;;;;;;;22.42;14.65;;;7.00;99.90;;;;;;4996494;28;20201;-85
2021/01/07 09:34:24;;;;;;;23.60;12.25;;;7.10;99.90;;;;;;4996319;28;20193;-85
2021/01/07 09:36:50;;;;;;;20.40;13.98;;;7.10;99.90;;;;;;4996228;28;20201;-85
2021/01/07 09:39:17;;;;;;;15.73;11.95;;;7.10;99.90;;;;;;4996025;28;20200;-86
2021/01/07 09:41:43;;;;;;;20.60;13.77;;;7.30;99.90;;;;;;4996229;28;20236;-84
2021/01/07 09:44:10;;;;;;;20.65;13.98;;;7.30;99.90;;;;;;4996207;28;20205;-85
2021/01/07 09:46:36;;;;;;;16.83;11.73;;;7.40;99.90;;;;;;4995982;28;20556;-85
2021/01/07 09:49:02;;;;;;;14.82;11.57;;;7.30;99.90;;;;;;4995605;28;20621;-86
2021/01/07 09:51:28;;;;;;;12.43;9.98;;;7.10;99.90;;;;;;4996200;28;20197;-85
2021/01/07 09:53:55;;;;;;;14.90;10.68;;;7.20;99.90;;;;;;4996002;28;20201;-85
2021/01/07 09:56:21;;;;;;;15.48;9.82;;;7.20;99.90;;;;;;4995946;28;20201;-84
2021/01/07 09:58:47;;;;;;;14.73;10.85;;;7.30;99.90;;;;;;4995890;28;20197;-84
2021/01/07 10:01:18;;;;;;;17.73;11.40;;;7.50;99.90;;;;;;4995475;28;20585;-84
2021/01/07 10:03:44;;;;;;;14.40;11.63;;;7.60;99.90;;;;;;4995707;28;20201;-85
2021/01/07 10:06:11;;;;;;;14.63;10.48;;;7.50;99.90;;;;;;4995727;28;20201;-84
2021/01/07 10:08:37;;;;;;;14.68;11.75;;;7.50;99.90;;;;;;4995800;28;20619;-84
2021/01/07 10:11:03;;;;;;;13.80;10.90;;;7.70;99.90;;;;;;4995524;28;20201;-84
2021/01/07 10:13:29;;;;;;;12.93;9.75;;;7.70;99.90;;;;;;4995771;28;20533;-85
2021/01/07 10:15:56;;;;;;;14.90;12.52;;;7.70;99.90;;;;;;4995491;28;20527;-84
2021/01/07 10:18:23;;;;;;;14.25;10.82;;;7.60;99.90;;;;;;4995507;28;20193;-86
2021/01/07 10:20:49;;;;;;;12.05;10.43;;;7.60;99.90;;;;;;4995201;28;20224;-86
2021/01/07 10:23:18;;;;;;;15.38;11.23;;;7.60;99.90;;;;;;4995415;28;20197;-85
2021/01/07 10:25:46;;;;;;;18.23;12.63;;;7.60;99.90;;;;;;4995441;28;20625;-86
2021/01/07 10:28:14;;;;;;;15.85;12.60;;;7.60;99.90;;;;;;4995321;28;20672;-85
2021/01/07 10:30:41;;;;;;;13.57;10.25;;;7.40;99.90;;;;;;4995119;28;20215;-86
2021/01/07 10:33:08;;;;;;;13.75;10.77;;;7.30;99.90;;;;;;4995122;28;20197;-86
2021/01/07 10:35:39;;;;;;;15.90;11.07;;;7.10;99.90;;;;;;4994956;28;20193;-86
2021/01/07 10:38:07;;;;;;;12.68;10.95;;;7.00;99.90;;;;;;4995277;28;20189;-86
2021/01/07 10:40:39;;;;;;;11.43;10.23;;;7.10;99.90;;;;;;4994831;28;20223;-86
2021/01/07 10:43:06;;;;;;;14.20;11.10;;;7.00;99.90;;;;;;4995017;28;20653;-85
2021/01/07 10:45:33;;;;;;;17.42;10.63;;;7.10;99.90;;;;;;4994576;28;20240;-86
2021/01/07 10:48:04;;;;;;;15.40;11.23;;;7.10;99.90;;;;;;4994747;28;20649;-86
2021/01/07 10:50:33;;;;;;;14.32;12.82;;;7.10;99.90;;;;;;4994537;28;20204;-86
2021/01/07 10:53:15;;;;;;;14.20;11.60;;;7.10;99.90;;;;;;4994963;28;20200;-86
2021/01/07 10:55:52;;;;;;;14.15;11.77;;;6.90;99.90;;;;;;4994773;28;20216;-86
2021/01/07 10:58:39;;;;;;;14.82;11.85;;;6.90;99.90;;;;;;4994876;28;20197;-85
2021/01/07 11:01:31;;;;;;;14.05;10.65;;;6.80;99.90;;;;;;4993989;28;20224;-86
2021/01/07 11:04:24;;;;;;;12.32;10.50;;;6.90;99.90;;;;;;4988236;28;20668;-86
2021/01/07 11:06:57;;;;;;;13.80;11.63;;;6.90;99.90;;;;;;4994553;28;20201;-85
2021/01/07 11:09:28;;;;;;;12.68;10.95;;;6.80;99.90;;;;;;4994558;28;20255;-84
2021/01/07 11:12:01;;;;;;;13.00;10.50;;;6.80;99.90;;;;;;4994613;28;20204;-83
2021/01/07 11:14:32;;;;;;;15.02;10.45;;;6.70;99.90;;;;;;4994684;28;20205;-83
2021/01/07 11:17:06;;;;;;;14.05;12.40;;;6.60;99.90;;;;;;4994885;28;20221;-83
2021/01/07 11:19:34;;;;;;;15.90;12.18;;;6.70;99.90;;;;;;4994242;28;20205;-83
2021/01/07 11:22:03;;;;;;;15.00;12.40;;;6.80;99.90;;;;;;4994105;28;20228;-83
2021/01/07 11:24:31;;;;;;;14.73;11.30;;;6.70;99.90;;;;;;4994186;28;20232;-83
2021/01/07 11:26:58;;;;;;;13.82;12.32;;;6.70;99.90;;;;;;4994090;28;20197;-84
2021/01/07 11:29:27;;;;;;;13.70;11.32;;;6.70;99.90;;;;;;4985418;28;20190;-83
2021/01/07 11:31:53;;;;;;;13.95;11.55;;;6.70;99.90;;;;;;4974690;28;20201;-83
2021/01/07 11:34:21;;;;;;;16.98;12.85;;;6.60;99.90;;;;;;4974748;28;20653;-84
2021/01/07 11:36:52;;;;;;;14.63;11.57;;;6.50;99.90;;;;;;4974614;28;20205;-83
2021/01/07 11:39:24;;;;;;;15.52;12.48;;;6.60;99.90;;;;;;4974886;28;20213;-83
2021/01/07 11:42:07;;;;;;;14.77;11.98;;;6.50;99.90;;;;;;4974846;28;20239;-83
2021/01/07 11:44:41;;;;;;;15.77;10.98;;;6.70;99.90;;;;;;4974702;28;20201;-84
2021/01/07 11:47:10;;;;;;;16.33;11.80;;;6.70;99.90;;;;;;4974459;28;20287;-84
2021/01/07 11:49:40;;;;;;;12.93;11.30;;;6.90;99.90;;;;;;4974720;28;20248;-84
2021/01/07 11:52:08;;;;;;;16.85;11.57;;;7.00;99.90;;;;;;4974675;28;20194;-83
2021/01/07 11:54:38;;;;;;;14.77;11.23;;;7.10;99.90;;;;;;4974444;28;20276;-83
2021/01/07 11:57:06;;;;;;;15.13;13.00;;;7.10;99.90;;;;;;4974912;28;20197;-83
2021/01/07 11:59:36;;;;;;;15.18;11.25;;;7.10;99.90;;;;;;4974594;28;20201;-84
2021/01/07 12:02:06;;;;;;;15.98;11.82;;;7.10;99.90;;;;;;4974454;28;20232;-84
2021/01/07 12:04:34;;;;;;;14.65;11.48;;;7.00;99.90;;;;;;4974404;28;20202;-83
2021/01/07 12:07:04;;;;;;;15.20;11.40;;;6.90;99.90;;;;;;4974439;28;20571;-83
2021/01/07 12:09:34;;;;;;;13.80;10.95;;;6.90;99.90;;;;;;4974135;28;20211;-82
2021/01/07 12:12:06;;;;;;;16.00;11.68;;;7.00;99.90;;;;;;4974700;28;20206;-81
2021/01/07 12:14:40;;;;;;;15.98;12.23;;;7.10;99.90;;;;;;4977961;28;20198;-82
2021/01/07 12:17:06;;;;;;;13.73;11.57;;;7.10;99.90;;;;;;4978150;28;20202;-82
2021/01/07 12:19:33;;;;;;;17.45;12.95;;;7.10;99.90;;;;;;4978191;28;20194;-82
2021/01/07 12:22:01;;;;;;;17.15;12.32;;;7.10;99.90;;;;;;4977902;28;20631;-82
2021/01/07 12:24:31;;;;;;;13.02;10.50;;;7.00;99.90;;;;;;4977686;28;20221;-82
2021/01/07 12:26:58;;;;;;;17.10;12.40;;;7.10;99.90;;;;;;4977604;28;20201;-82
2021/01/07 12:29:25;;;;;;;13.25;10.65;;;7.00;99.90;;;;;;4977887;28;20292;-82
2021/01/07 12:31:53;;;;;;;15.13;12.98;;;7.10;99.90;;;;;;4977880;28;20194;-82
2021/01/07 12:34:25;;;;;;;16.10;11.05;;;7.20;99.90;;;;;;4977666;28;20197;-82
2021/01/07 12:37:07;;;;;;;11.88;10.65;;;7.30;99.90;;;;;;4977744;28;20657;-82
2021/01/07 12:39:37;;;;;;;14.07;11.45;;;7.30;99.90;;;;;;4977818;28;20201;-82
2021/01/07 12:42:10;;;;;;;14.68;11.05;;;7.30;99.90;;;;;;4977654;28;20226;-82
2021/01/07 12:44:41;;;;;;;13.07;11.68;;;7.40;99.90;;;;;;4977593;28;20205;-82
2021/01/07 12:47:08;;;;;;;13.63;10.35;;;7.40;99.90;;;;;;4977696;28;20619;-82
2021/01/07 12:49:36;;;;;;;11.40;10.05;;;7.30;99.90;;;;;;4977428;28;20194;-82